createdAt,value
2022-12-17T00:01:26.016Z,52.37
2022-12-17T00:04:08.688Z,47.83
2022-12-17T00:06:52.340Z,45.63
2022-12-17T00:09:34.840Z,53.43
2022-12-17T00:12:17.409Z,44.13
2022-12-17T00:15:05.641Z,47.77
2022-12-17T00:17:48.154Z,49.87
2022-12-17T00:20:30.935Z,48.23
2022-12-17T00:23:18.291Z,48.87
2022-12-17T00:26:06.932Z,56.87
2022-12-17T00:28:49.513Z,46.30
2022-12-17T00:31:34.772Z,42.53
2022-12-17T00:34:17.546Z,49.77
2022-12-17T00:36:52.632Z,44.67
2022-12-17T00:39:36.320Z,46.47
2022-12-17T00:42:19.041Z,42.17
2022-12-17T00:45:02.829Z,45.30
2022-12-17T00:47:47.952Z,44.30
2022-12-17T00:50:30.598Z,48.07
2022-12-17T00:53:15.339Z,46.83
2022-12-17T00:55:58.148Z,42.93
2022-12-17T00:58:40.714Z,48.30
2022-12-17T01:01:23.541Z,40.90
2022-12-17T01:04:09.913Z,46.90
2022-12-17T01:06:52.555Z,40.10
2022-12-17T01:09:36.522Z,41.57
2022-12-17T01:12:19.889Z,37.97
2022-12-17T01:15:02.442Z,40.03
2022-12-17T01:17:45.054Z,32.83
2022-12-17T01:20:30.619Z,35.23
2022-12-17T01:23:13.248Z,36.20
2022-12-17T01:25:56.403Z,33.47
2022-12-17T01:28:40.494Z,28.37
2022-12-17T01:31:23.185Z,23.70
2022-12-17T01:34:08.356Z,27.93
2022-12-17T01:36:53.663Z,25.33
2022-12-17T01:39:36.318Z,26.77
2022-12-17T01:42:19.048Z,27.37
2022-12-17T01:45:10.324Z,31.00
2022-12-17T01:48:02.758Z,33.80
2022-12-17T01:50:51.951Z,30.77
2022-12-17T01:53:42.892Z,24.27
2022-12-17T01:56:27.050Z,27.57
2022-12-17T01:59:10.072Z,26.70
2022-12-17T02:01:53.326Z,27.43
2022-12-17T02:04:48.496Z,29.13
2022-12-17T02:07:53.128Z,27.70
2022-12-17T02:10:56.468Z,29.67
2022-12-17T02:13:57.028Z,30.97
2022-12-17T02:16:49.956Z,24.90
2022-12-17T02:19:55.766Z,27.50
2022-12-17T02:22:54.317Z,31.70
2022-12-17T02:25:55.605Z,44.77
2022-12-17T02:28:41.964Z,33.77
2022-12-17T02:31:26.179Z,34.50
2022-12-17T02:34:09.044Z,23.03
2022-12-17T02:36:52.082Z,30.90
2022-12-17T02:39:34.805Z,31.47
2022-12-17T02:42:17.884Z,30.53
2022-12-17T02:45:03.407Z,30.93
2022-12-17T02:47:46.438Z,30.53
2022-12-17T02:50:32.799Z,28.10
2022-12-17T02:53:18.400Z,26.07
2022-12-17T02:56:01.076Z,33.30
2022-12-17T02:58:43.758Z,30.27
2022-12-17T03:01:28.961Z,32.80
2022-12-17T03:04:11.651Z,30.10
2022-12-17T03:06:54.316Z,30.70
2022-12-17T03:09:36.901Z,30.33
2022-12-17T03:12:20.042Z,26.03
2022-12-17T03:15:02.734Z,28.97
2022-12-17T03:17:47.966Z,27.00
2022-12-17T03:20:30.785Z,27.83
2022-12-17T03:23:18.485Z,31.67
2022-12-17T03:26:15.608Z,30.23
2022-12-17T03:28:58.268Z,32.07
2022-12-17T03:31:40.837Z,31.90
2022-12-17T03:37:14.018Z,34.27
2022-12-17T03:39:56.597Z,33.00
2022-12-17T03:42:39.153Z,33.10
2022-12-17T03:45:23.383Z,36.60
2022-12-17T03:48:05.943Z,34.37
2022-12-17T03:50:51.140Z,32.70
2022-12-17T03:53:34.065Z,30.70
2022-12-17T03:56:16.843Z,33.53
2022-12-17T03:59:00.855Z,26.50
2022-12-17T04:01:43.636Z,33.33
2022-12-17T04:04:26.591Z,26.50
2022-12-17T04:07:12.561Z,28.17
2022-12-17T04:09:55.342Z,28.67
2022-12-17T04:12:38.543Z,27.90
2022-12-17T04:15:22.503Z,26.27
2022-12-17T04:18:05.135Z,26.10
2022-12-17T04:20:47.650Z,25.93
2022-12-17T04:23:32.954Z,26.37
2022-12-17T04:26:15.601Z,22.47
2022-12-17T04:28:58.220Z,24.83
2022-12-17T04:31:40.703Z,22.73
2022-12-17T04:34:23.308Z,22.67
2022-12-17T04:37:05.798Z,21.60
2022-12-17T04:39:50.963Z,23.87
2022-12-17T04:42:34.810Z,19.77
2022-12-17T04:45:29.485Z,25.03
2022-12-17T04:48:17.651Z,23.53
2022-12-17T04:51:00.321Z,20.90
2022-12-17T04:53:42.803Z,20.73
2022-12-17T04:56:27.975Z,20.20
2022-12-17T04:59:11.490Z,19.30
2022-12-17T05:01:54.181Z,18.83
2022-12-17T05:04:36.718Z,21.13
2022-12-17T05:07:20.508Z,20.40
2022-12-17T05:10:03.028Z,17.73
2022-12-17T05:12:48.208Z,16.20
2022-12-17T05:15:30.975Z,22.03
2022-12-17T05:18:36.219Z,18.70
2022-12-17T05:21:19.003Z,18.60
2022-12-17T05:24:01.501Z,16.00
2022-12-17T05:26:44.833Z,16.53
2022-12-17T05:29:30.241Z,17.97
2022-12-17T05:32:13.003Z,19.87
2022-12-17T05:34:55.546Z,18.53
2022-12-17T05:37:40.473Z,21.60
2022-12-17T05:40:24.959Z,18.07
2022-12-17T05:43:12.288Z,19.43
2022-12-17T05:45:58.095Z,19.10
2022-12-17T05:48:40.690Z,20.07
2022-12-17T05:51:23.223Z,17.93
2022-12-17T05:54:06.548Z,17.90
2022-12-17T05:56:49.031Z,20.10
2022-12-17T05:59:31.595Z,19.90
2022-12-17T06:02:16.795Z,18.67
2022-12-17T06:05:02.282Z,20.23
2022-12-17T06:07:51.000Z,17.07
2022-12-17T06:10:37.701Z,18.77
2022-12-17T06:13:20.341Z,17.13
2022-12-17T06:16:05.289Z,20.57
2022-12-17T06:18:50.767Z,22.53
2022-12-17T06:21:33.268Z,18.83
2022-12-17T06:24:15.873Z,21.60
2022-12-17T06:26:58.439Z,20.93
2022-12-17T06:29:41.027Z,20.30
2022-12-17T06:32:23.499Z,20.43
2022-12-17T06:35:08.638Z,20.50
2022-12-17T06:37:51.116Z,24.47
2022-12-17T06:40:33.820Z,20.87
2022-12-17T06:43:16.369Z,20.37
2022-12-17T06:45:59.027Z,16.37
2022-12-17T06:48:41.537Z,18.57
2022-12-17T06:51:26.782Z,17.17
2022-12-17T06:54:09.501Z,17.37
2022-12-17T06:56:52.123Z,22.43
2022-12-17T06:59:46.705Z,27.23
2022-12-17T07:02:29.604Z,19.50
2022-12-17T07:05:12.220Z,23.70
2022-12-17T07:07:57.386Z,21.03
2022-12-17T07:10:39.996Z,24.27
2022-12-17T07:13:24.140Z,26.27
2022-12-17T07:16:07.068Z,22.07
2022-12-17T07:19:01.381Z,22.30
2022-12-17T07:21:43.863Z,21.07
2022-12-17T07:24:29.089Z,22.17
2022-12-17T07:27:11.710Z,23.27
2022-12-17T07:29:54.418Z,22.90
2022-12-17T07:32:37.486Z,24.03
2022-12-17T07:35:21.778Z,23.33
2022-12-17T07:38:04.401Z,23.83
2022-12-17T07:40:49.528Z,19.63
2022-12-17T07:43:35.403Z,24.87
2022-12-17T07:46:18.278Z,24.00
2022-12-17T07:49:00.859Z,28.63
2022-12-17T07:51:43.351Z,22.47
2022-12-17T07:54:25.919Z,23.90
2022-12-17T07:57:10.828Z,21.07
2022-12-17T07:59:53.383Z,21.10
2022-12-17T08:02:36.435Z,22.37
2022-12-17T08:05:19.374Z,22.93
2022-12-17T08:08:01.896Z,22.13
2022-12-17T08:10:44.442Z,19.57
2022-12-17T08:13:29.515Z,18.53
2022-12-17T08:16:12.103Z,20.33
2022-12-17T08:18:54.852Z,17.30
2022-12-17T08:21:37.427Z,19.63
2022-12-17T08:24:20.904Z,17.07
2022-12-17T08:27:03.457Z,18.63
2022-12-17T08:29:48.627Z,16.23
2022-12-17T08:32:31.491Z,16.17
2022-12-17T08:35:14.008Z,19.93
2022-12-17T08:37:56.751Z,20.00
2022-12-17T08:40:39.508Z,18.03
2022-12-17T08:43:22.438Z,16.40
2022-12-17T08:46:08.528Z,17.87
2022-12-17T08:48:51.908Z,17.93
2022-12-17T08:51:34.551Z,18.77
2022-12-17T08:54:17.343Z,17.87
2022-12-17T08:56:59.870Z,16.33
2022-12-17T08:59:43.957Z,15.73
2022-12-17T09:02:41.730Z,15.53
2022-12-17T09:05:25.563Z,12.80
2022-12-17T09:08:15.120Z,17.67
2022-12-17T09:10:57.700Z,14.57
2022-12-17T09:13:45.845Z,16.33
2022-12-17T09:16:28.515Z,15.70
2022-12-17T09:19:13.865Z,15.77
2022-12-17T09:21:56.495Z,16.90
2022-12-17T09:24:39.016Z,12.73
2022-12-17T09:27:22.109Z,12.73
2022-12-17T09:30:04.762Z,13.73
2022-12-17T09:32:47.483Z,12.60
2022-12-17T09:35:32.915Z,13.47
2022-12-17T09:38:15.688Z,12.43
2022-12-17T09:41:05.337Z,10.80
2022-12-17T09:43:59.347Z,12.20
2022-12-17T09:46:53.883Z,11.37
2022-12-17T09:49:41.154Z,12.20
2022-12-17T09:52:42.875Z,11.50
2022-12-17T09:55:35.861Z,12.03
2022-12-17T09:58:18.990Z,13.47
2022-12-17T10:01:14.273Z,15.00
2022-12-17T10:04:00.969Z,14.03
2022-12-17T10:06:45.404Z,13.47
2022-12-17T10:09:34.659Z,11.20
2022-12-17T10:12:29.234Z,18.10
2022-12-17T10:15:11.751Z,13.53
2022-12-17T10:17:54.292Z,12.40
2022-12-17T10:20:46.222Z,17.63
2022-12-17T10:23:41.798Z,14.37
2022-12-17T10:26:40.873Z,13.83
2022-12-17T10:29:29.401Z,12.77
2022-12-17T10:32:23.895Z,14.20
2022-12-17T10:35:07.669Z,12.50
2022-12-17T10:37:51.334Z,17.37
2022-12-17T10:40:42.696Z,13.10
2022-12-17T10:43:55.927Z,12.30
2022-12-17T10:46:41.014Z,16.83
2022-12-17T10:49:30.820Z,14.77
2022-12-17T10:52:20.412Z,15.65
2022-12-17T10:55:14.691Z,15.85
2022-12-17T10:57:58.854Z,18.88
2022-12-17T11:00:50.201Z,11.95
2022-12-17T11:03:44.378Z,13.98
2022-12-17T11:06:40.411Z,12.65
2022-12-17T11:09:56.214Z,13.40
2022-12-17T11:12:55.692Z,13.27
2022-12-17T11:15:48.132Z,13.73
2022-12-17T11:18:37.953Z,11.82
2022-12-17T11:21:27.405Z,13.93
2022-12-17T11:24:17.728Z,12.73
2022-12-17T11:27:11.549Z,17.13
2022-12-17T11:29:54.158Z,11.87
2022-12-17T11:33:09.250Z,12.70
2022-12-17T11:36:08.673Z,11.33
2022-12-17T11:38:57.119Z,12.63
2022-12-17T11:41:59.497Z,12.93
2022-12-17T11:45:00.974Z,9.80
2022-12-17T11:48:00.759Z,12.30
2022-12-17T11:50:51.647Z,12.23
2022-12-17T11:53:59.280Z,11.43
2022-12-17T11:56:47.926Z,11.33
2022-12-17T11:59:46.721Z,11.20
2022-12-17T12:02:59.918Z,10.57
2022-12-17T12:05:58.525Z,11.53
2022-12-17T12:08:46.448Z,11.40
2022-12-17T12:11:42.444Z,11.97
2022-12-17T12:14:47.292Z,12.30
2022-12-17T12:17:52.294Z,11.10
2022-12-17T12:21:02.991Z,9.63
2022-12-17T12:24:06.226Z,12.77
2022-12-17T12:27:04.937Z,11.67
2022-12-17T12:30:01.745Z,10.47
2022-12-17T12:32:58.145Z,12.57
2022-12-17T12:35:45.657Z,10.60
2022-12-17T12:38:42.964Z,13.10
2022-12-17T12:41:39.009Z,8.77
2022-12-17T12:44:34.028Z,11.33
2022-12-17T12:47:25.292Z,11.63
2022-12-17T12:50:17.591Z,142.90
2022-12-17T12:53:03.401Z,16.03
2022-12-17T12:55:57.672Z,20.77
2022-12-17T12:58:43.458Z,13.40
2022-12-17T13:01:27.006Z,15.17
2022-12-17T13:04:14.006Z,13.43
2022-12-17T13:06:54.206Z,13.93
2022-12-17T13:09:39.670Z,11.13
2022-12-17T13:12:33.556Z,13.43
2022-12-17T13:15:41.350Z,12.33
2022-12-17T13:18:31.633Z,12.63
2022-12-17T13:21:05.689Z,21.83
2022-12-17T13:23:42.100Z,17.20
2022-12-17T13:26:26.183Z,16.47
2022-12-17T13:29:22.725Z,18.83
2022-12-17T13:32:21.969Z,15.87
2022-12-17T13:35:10.601Z,14.20
2022-12-17T13:37:54.043Z,12.13
2022-12-17T13:40:46.385Z,12.77
2022-12-17T13:43:25.515Z,10.50
2022-12-17T13:45:58.414Z,12.10
2022-12-17T13:48:31.439Z,11.40
2022-12-17T13:51:04.867Z,14.50
2022-12-17T13:53:37.733Z,9.30
2022-12-17T13:56:08.067Z,12.27
2022-12-17T13:58:41.094Z,14.77
2022-12-17T14:01:14.655Z,12.07
2022-12-17T14:04:08.889Z,12.27
2022-12-17T14:06:41.493Z,14.93
2022-12-17T14:09:21.155Z,18.43
2022-12-17T14:12:05.055Z,15.03
2022-12-17T14:14:41.662Z,13.67
2022-12-17T14:17:21.677Z,15.37
2022-12-17T14:20:05.346Z,16.53
2022-12-17T14:22:40.103Z,14.27
2022-12-17T14:25:21.719Z,15.63
2022-12-17T14:28:00.441Z,14.13
2022-12-17T14:31:02.598Z,16.27
2022-12-17T14:33:35.327Z,14.00
2022-12-17T14:36:11.732Z,15.33
2022-12-17T14:38:46.744Z,14.77
2022-12-17T14:41:36.971Z,13.13
2022-12-17T14:44:11.250Z,18.23
2022-12-17T14:46:46.760Z,19.07
2022-12-17T14:49:23.406Z,18.67
2022-12-17T14:51:53.559Z,16.70
2022-12-17T14:54:32.310Z,16.87
2022-12-17T14:57:07.865Z,19.43
2022-12-17T14:59:41.613Z,15.83
2022-12-17T15:02:27.720Z,32.20
2022-12-17T15:05:04.466Z,18.87
2022-12-17T15:07:37.810Z,20.30
2022-12-17T15:10:14.602Z,19.47
2022-12-17T15:12:48.760Z,23.90
2022-12-17T15:15:20.935Z,29.07
2022-12-17T15:17:53.624Z,25.33
2022-12-17T15:20:24.767Z,19.63
2022-12-17T15:22:54.879Z,25.63
2022-12-17T15:25:24.929Z,20.67
2022-12-17T15:27:55.581Z,25.43
2022-12-17T15:30:26.038Z,21.50
2022-12-17T15:33:01.443Z,19.73
2022-12-17T15:35:31.523Z,23.33
2022-12-17T15:38:01.680Z,21.77
2022-12-17T15:40:31.820Z,24.57
2022-12-17T15:43:13.501Z,23.03
2022-12-17T15:45:46.668Z,24.07
2022-12-17T15:48:23.283Z,24.63
2022-12-17T15:50:56.551Z,23.67
2022-12-17T15:53:26.640Z,26.97
2022-12-17T15:56:03.150Z,22.97
2022-12-17T15:58:34.095Z,26.30
2022-12-17T16:01:07.982Z,25.30
2022-12-17T16:03:40.823Z,23.43
2022-12-17T16:06:11.232Z,23.13
2022-12-17T16:08:42.234Z,28.87
2022-12-17T16:11:14.669Z,23.77
2022-12-17T16:13:45.268Z,28.03
2022-12-17T16:16:15.328Z,27.63
2022-12-17T16:18:48.079Z,25.73
2022-12-17T16:21:18.792Z,22.53
2022-12-17T16:23:49.505Z,24.93
2022-12-17T16:26:19.578Z,27.23
2022-12-17T16:28:50.003Z,28.60
2022-12-17T16:31:20.227Z,25.60
2022-12-17T16:33:55.697Z,21.80
2022-12-17T16:36:26.101Z,24.13
2022-12-17T16:38:57.857Z,24.77
2022-12-17T16:41:27.915Z,26.93
2022-12-17T16:43:58.188Z,27.87
2022-12-17T16:46:31.635Z,25.07
2022-12-17T16:49:10.800Z,25.23
2022-12-17T16:51:42.543Z,26.30
2022-12-17T16:54:18.803Z,27.97
2022-12-17T16:56:49.899Z,26.37
2022-12-17T16:59:20.678Z,26.30
2022-12-17T17:01:53.848Z,24.63
2022-12-17T17:04:27.119Z,28.43
2022-12-17T17:07:00.103Z,26.50
2022-12-17T17:09:30.416Z,26.90
2022-12-17T17:12:01.634Z,27.40
2022-12-17T17:14:31.738Z,25.67
2022-12-17T17:17:01.814Z,25.23
2022-12-17T17:19:34.527Z,25.57
2022-12-17T17:22:04.580Z,27.40
2022-12-17T17:24:34.759Z,26.70
2022-12-17T17:27:04.837Z,30.77
2022-12-17T17:29:36.059Z,39.10
2022-12-17T17:32:11.333Z,47.30
2022-12-17T17:34:46.079Z,39.63
2022-12-17T17:37:16.236Z,26.37
2022-12-17T17:39:46.536Z,26.00
2022-12-17T17:42:16.648Z,20.47
2022-12-17T17:44:46.696Z,21.77
2022-12-17T17:47:16.796Z,22.00
2022-12-17T17:49:49.543Z,22.37
2022-12-17T17:52:19.764Z,23.40
2022-12-17T17:54:50.719Z,18.83
2022-12-17T17:57:20.771Z,19.77
2022-12-17T17:59:50.877Z,20.37
2022-12-17T18:02:21.071Z,20.00
2022-12-17T18:04:53.813Z,23.03
2022-12-17T18:07:26.415Z,27.60
2022-12-17T18:09:59.713Z,28.67
2022-12-17T18:12:43.325Z,21.43
2022-12-17T18:15:16.370Z,29.10
2022-12-17T18:17:48.764Z,22.90
2022-12-17T18:20:21.823Z,24.07
2022-12-17T18:22:51.946Z,24.03
2022-12-17T18:25:22.177Z,19.17
2022-12-17T18:27:54.778Z,23.80
2022-12-17T18:30:24.974Z,20.47
2022-12-17T18:32:55.060Z,17.67
2022-12-17T18:35:27.860Z,17.63
2022-12-17T18:38:00.494Z,19.20
2022-12-17T18:40:33.415Z,17.03
2022-12-17T18:43:31.064Z,16.77
2022-12-17T18:46:07.851Z,19.20
2022-12-17T18:48:38.239Z,18.47
2022-12-17T18:51:11.327Z,18.57
2022-12-17T18:53:41.455Z,14.30
2022-12-17T18:56:22.910Z,17.20
2022-12-17T18:59:02.195Z,17.60
2022-12-17T19:01:35.462Z,17.97
2022-12-17T19:04:07.966Z,17.37
2022-12-17T19:06:43.581Z,20.13
2022-12-17T19:09:22.828Z,19.43
2022-12-17T19:11:54.534Z,19.10
2022-12-17T19:14:25.915Z,19.53
2022-12-17T19:16:59.053Z,22.37
2022-12-17T19:19:29.769Z,19.50
2022-12-17T19:22:03.468Z,19.47
2022-12-17T19:24:36.144Z,19.53
2022-12-17T19:27:06.428Z,22.13
2022-12-17T19:29:41.964Z,18.03
2022-12-17T19:32:15.098Z,19.27
2022-12-17T19:34:45.154Z,20.47
2022-12-17T19:37:17.812Z,24.30
2022-12-17T19:39:47.882Z,20.60
2022-12-17T19:42:33.408Z,23.33
2022-12-17T19:45:07.849Z,21.47
2022-12-17T19:47:37.963Z,16.13
2022-12-17T19:50:09.372Z,19.27
2022-12-17T19:52:42.408Z,20.93
2022-12-17T19:55:12.744Z,20.03
2022-12-17T19:57:42.838Z,19.13
2022-12-17T20:00:17.137Z,23.13
2022-12-17T20:02:47.398Z,20.33
2022-12-17T20:05:17.712Z,20.07
2022-12-17T20:07:50.412Z,19.80
2022-12-17T20:10:20.721Z,23.30
2022-12-17T20:12:50.811Z,21.57
2022-12-17T20:15:20.904Z,20.30
2022-12-17T20:17:50.952Z,22.90
2022-12-17T20:20:21.032Z,21.93
2022-12-17T20:22:53.678Z,18.67
2022-12-17T20:25:23.760Z,18.67
2022-12-17T20:27:53.997Z,18.77
2022-12-17T20:30:24.251Z,16.00
2022-12-17T20:32:55.686Z,16.57
2022-12-17T20:35:25.862Z,17.40
2022-12-17T20:37:58.542Z,15.80
2022-12-17T20:40:28.667Z,18.67
2022-12-17T20:42:58.714Z,19.33
2022-12-17T20:45:28.824Z,19.53
2022-12-17T20:47:58.983Z,21.20
2022-12-17T20:50:29.122Z,18.23
2022-12-17T20:53:04.727Z,19.73
2022-12-17T20:55:34.834Z,19.70
2022-12-17T20:58:04.885Z,25.97
2022-12-17T21:00:35.062Z,30.80
2022-12-17T21:03:05.141Z,29.77
2022-12-17T21:05:38.654Z,30.70
2022-12-17T21:08:11.341Z,24.90
2022-12-17T21:10:41.463Z,27.67
2022-12-17T21:13:25.772Z,26.07
2022-12-17T21:15:55.852Z,27.70
2022-12-17T21:18:26.038Z,25.83
2022-12-17T21:21:01.792Z,31.30
2022-12-17T21:23:36.265Z,27.70
2022-12-17T21:26:10.342Z,27.50
2022-12-17T21:28:47.090Z,26.03
2022-12-17T21:31:23.989Z,25.53
2022-12-17T21:34:00.626Z,23.27
2022-12-17T21:36:34.050Z,27.93
2022-12-17T21:39:12.527Z,23.17
2022-12-17T21:42:05.661Z,23.00
2022-12-17T21:44:35.932Z,29.73
2022-12-17T21:47:06.709Z,21.53
2022-12-17T21:49:37.038Z,19.53
2022-12-17T21:52:08.064Z,20.30
2022-12-17T21:54:46.374Z,22.57
2022-12-17T21:57:17.084Z,22.07
2022-12-17T21:59:47.172Z,20.80
2022-12-17T22:02:18.168Z,22.63
2022-12-17T22:04:48.887Z,21.67
2022-12-17T22:07:31.697Z,23.23
2022-12-17T22:10:31.684Z,24.23
2022-12-17T22:13:15.547Z,21.53
2022-12-17T22:15:48.446Z,18.47
2022-12-17T22:18:18.975Z,19.93
2022-12-17T22:20:58.613Z,19.87
2022-12-17T22:23:29.303Z,20.03
2022-12-17T22:26:02.346Z,21.53
2022-12-17T22:28:32.406Z,19.40
2022-12-17T22:31:20.258Z,20.53
2022-12-17T22:35:00.928Z,18.00
2022-12-17T22:38:22.073Z,19.43
2022-12-17T22:42:51.410Z,20.23
2022-12-17T22:44:49.039Z,18.77
2022-12-17T22:45:29.791Z,19.97
2022-12-17T22:47:59.979Z,21.30
2022-12-17T22:50:38.147Z,19.37
2022-12-17T22:53:20.972Z,19.50
2022-12-17T22:55:51.912Z,17.30
2022-12-17T22:58:24.950Z,20.00
2022-12-17T23:00:55.165Z,19.70
2022-12-17T23:03:25.467Z,19.17
2022-12-17T23:05:55.760Z,18.47
2022-12-17T23:08:25.936Z,16.90
2022-12-17T23:10:55.999Z,18.37
2022-12-17T23:13:28.692Z,18.57
2022-12-17T23:15:59.185Z,17.67
2022-12-17T23:18:29.341Z,16.17
2022-12-17T23:20:59.422Z,19.77
2022-12-17T23:23:29.608Z,21.57
2022-12-17T23:25:59.946Z,16.63
2022-12-17T23:28:32.712Z,16.87
2022-12-17T23:31:11.196Z,11.80
2022-12-17T23:33:42.066Z,16.17
2022-12-17T23:36:16.529Z,15.33
2022-12-17T23:38:47.896Z,15.97
2022-12-17T23:41:23.616Z,21.10
2022-12-17T23:43:58.998Z,23.60
2022-12-17T23:46:32.463Z,16.80
2022-12-17T23:49:02.584Z,17.63
2022-12-17T23:51:32.655Z,15.60
2022-12-17T23:54:03.266Z,18.57
2022-12-17T23:56:33.400Z,14.23
2022-12-17T23:59:07.220Z,15.30
